sensor_id;sensor_type;location;lat;lon;timestamp;P1;durP1;ratioP1;P2;durP2;ratioP2
18659;SDS011;9459;50.254;19.014;2023-08-20T00:00:14;12.90;;;11.30;;
18659;SDS011;9459;50.254;19.014;2023-08-20T00:03:12;13.48;;;12.07;;
18659;SDS011;9459;50.254;19.014;2023-08-20T00:05:41;13.00;;;11.70;;
18659;SDS011;9459;50.254;19.014;2023-08-20T00:08:10;11.23;;;10.00;;
18659;SDS011;9459;50.254;19.014;2023-08-20T00:10:38;11.48;;;10.30;;
18659;SDS011;9459;50.254;19.014;2023-08-20T00:13:07;11.77;;;10.52;;
18659;SDS011;9459;50.254;19.014;2023-08-20T00:15:35;11.68;;;10.48;;
18659;SDS011;9459;50.254;19.014;2023-08-20T00:18:05;10.82;;;9.70;;
18659;SDS011;9459;50.254;19.014;2023-08-20T00:23:03;10.25;;;9.23;;
18659;SDS011;9459;50.254;19.014;2023-08-20T00:25:33;10.65;;;9.55;;
18659;SDS011;9459;50.254;19.014;2023-08-20T00:28:01;10.60;;;9.60;;
18659;SDS011;9459;50.254;19.014;2023-08-20T00:30:30;15.25;;;12.70;;
18659;SDS011;9459;50.254;19.014;2023-08-20T00:32:58;12.55;;;11.35;;
18659;SDS011;9459;50.254;19.014;2023-08-20T00:35:28;11.73;;;10.52;;
18659;SDS011;9459;50.254;19.014;2023-08-20T00:37:56;10.88;;;9.77;;
18659;SDS011;9459;50.254;19.014;2023-08-20T00:40:25;10.63;;;9.63;;
18659;SDS011;9459;50.254;19.014;2023-08-20T00:42:53;11.25;;;9.55;;
18659;SDS011;9459;50.254;19.014;2023-08-20T00:45:22;11.23;;;10.02;;
18659;SDS011;9459;50.254;19.014;2023-08-20T00:47:50;13.32;;;11.23;;
18659;SDS011;9459;50.254;19.014;2023-08-20T00:50:20;12.55;;;11.32;;
18659;SDS011;9459;50.254;19.014;2023-08-20T00:52:50;12.65;;;11.27;;
18659;SDS011;9459;50.254;19.014;2023-08-20T00:55:19;13.07;;;11.70;;
18659;SDS011;9459;50.254;19.014;2023-08-20T00:57:47;14.93;;;13.43;;
18659;SDS011;9459;50.254;19.014;2023-08-20T01:00:16;13.80;;;12.20;;
18659;SDS011;9459;50.254;19.014;2023-08-20T01:02:45;13.13;;;11.13;;
18659;SDS011;9459;50.254;19.014;2023-08-20T01:05:14;12.05;;;10.88;;
18659;SDS011;9459;50.254;19.014;2023-08-20T01:07:47;13.20;;;11.80;;
18659;SDS011;9459;50.254;19.014;2023-08-20T01:10:24;12.13;;;10.98;;
18659;SDS011;9459;50.254;19.014;2023-08-20T01:12:54;13.70;;;12.30;;
18659;SDS011;9459;50.254;19.014;2023-08-20T01:15:23;15.43;;;13.35;;
18659;SDS011;9459;50.254;19.014;2023-08-20T01:17:52;11.68;;;10.57;;
18659;SDS011;9459;50.254;19.014;2023-08-20T01:20:21;9.43;;;8.55;;
18659;SDS011;9459;50.254;19.014;2023-08-20T01:26:21;11.02;;;9.90;;
18659;SDS011;9459;50.254;19.014;2023-08-20T01:28:55;12.05;;;10.82;;
18659;SDS011;9459;50.254;19.014;2023-08-20T01:31:24;11.52;;;10.18;;
18659;SDS011;9459;50.254;19.014;2023-08-20T01:33:53;15.95;;;14.35;;
18659;SDS011;9459;50.254;19.014;2023-08-20T01:38:52;18.10;;;16.15;;
18659;SDS011;9459;50.254;19.014;2023-08-20T01:41:21;28.83;;;22.17;;
18659;SDS011;9459;50.254;19.014;2023-08-20T01:43:49;24.52;;;19.77;;
18659;SDS011;9459;50.254;19.014;2023-08-20T01:46:19;20.38;;;17.52;;
18659;SDS011;9459;50.254;19.014;2023-08-20T01:48:48;21.00;;;17.65;;
18659;SDS011;9459;50.254;19.014;2023-08-20T01:51:16;21.55;;;17.05;;
18659;SDS011;9459;50.254;19.014;2023-08-20T01:53:45;17.92;;;14.98;;
18659;SDS011;9459;50.254;19.014;2023-08-20T01:56:13;16.77;;;14.98;;
18659;SDS011;9459;50.254;19.014;2023-08-20T01:58:42;17.23;;;14.65;;
18659;SDS011;9459;50.254;19.014;2023-08-20T02:01:11;18.45;;;15.15;;
18659;SDS011;9459;50.254;19.014;2023-08-20T02:03:41;16.15;;;14.40;;
18659;SDS011;9459;50.254;19.014;2023-08-20T02:06:09;17.17;;;14.95;;
18659;SDS011;9459;50.254;19.014;2023-08-20T02:08:38;18.50;;;14.45;;
18659;SDS011;9459;50.254;19.014;2023-08-20T02:11:06;17.85;;;15.02;;
18659;SDS011;9459;50.254;19.014;2023-08-20T02:13:35;17.02;;;13.88;;
18659;SDS011;9459;50.254;19.014;2023-08-20T02:16:04;18.70;;;14.50;;
18659;SDS011;9459;50.254;19.014;2023-08-20T02:18:33;17.30;;;15.10;;
18659;SDS011;9459;50.254;19.014;2023-08-20T02:21:03;17.35;;;14.68;;
18659;SDS011;9459;50.254;19.014;2023-08-20T02:23:31;15.50;;;13.90;;
18659;SDS011;9459;50.254;19.014;2023-08-20T02:26:00;14.23;;;12.00;;
18659;SDS011;9459;50.254;19.014;2023-08-20T02:28:29;15.73;;;13.52;;
18659;SDS011;9459;50.254;19.014;2023-08-20T02:30:57;16.05;;;14.35;;
18659;SDS011;9459;50.254;19.014;2023-08-20T02:33:26;14.55;;;13.05;;
18659;SDS011;9459;50.254;19.014;2023-08-20T02:35:57;13.82;;;12.43;;
18659;SDS011;9459;50.254;19.014;2023-08-20T02:38:30;15.60;;;13.77;;
18659;SDS011;9459;50.254;19.014;2023-08-20T02:40:59;13.53;;;12.23;;
18659;SDS011;9459;50.254;19.014;2023-08-20T02:43:29;14.65;;;12.95;;
18659;SDS011;9459;50.254;19.014;2023-08-20T02:45:57;14.43;;;12.93;;
18659;SDS011;9459;50.254;19.014;2023-08-20T02:48:26;15.65;;;12.75;;
18659;SDS011;9459;50.254;19.014;2023-08-20T02:50:56;16.35;;;14.48;;
18659;SDS011;9459;50.254;19.014;2023-08-20T02:53:24;16.77;;;13.85;;
18659;SDS011;9459;50.254;19.014;2023-08-20T02:55:54;14.82;;;13.23;;
18659;SDS011;9459;50.254;19.014;2023-08-20T02:58:23;20.40;;;15.83;;
18659;SDS011;9459;50.254;19.014;2023-08-20T03:00:51;18.17;;;14.85;;
18659;SDS011;9459;50.254;19.014;2023-08-20T03:03:19;19.63;;;14.95;;
18659;SDS011;9459;50.254;19.014;2023-08-20T03:05:48;19.55;;;15.85;;
18659;SDS011;9459;50.254;19.014;2023-08-20T03:08:16;19.23;;;15.80;;
18659;SDS011;9459;50.254;19.014;2023-08-20T03:10:45;21.95;;;17.05;;
18659;SDS011;9459;50.254;19.014;2023-08-20T03:13:15;18.73;;;15.70;;
18659;SDS011;9459;50.254;19.014;2023-08-20T03:15:43;19.70;;;16.23;;
18659;SDS011;9459;50.254;19.014;2023-08-20T03:18:12;22.00;;;18.08;;
18659;SDS011;9459;50.254;19.014;2023-08-20T03:20:40;20.83;;;18.02;;
18659;SDS011;9459;50.254;19.014;2023-08-20T03:23:08;23.52;;;18.73;;
18659;SDS011;9459;50.254;19.014;2023-08-20T03:25:37;24.00;;;19.13;;
18659;SDS011;9459;50.254;19.014;2023-08-20T03:28:06;23.30;;;18.25;;
18659;SDS011;9459;50.254;19.014;2023-08-20T03:30:36;20.90;;;18.00;;
18659;SDS011;9459;50.254;19.014;2023-08-20T03:33:04;21.15;;;17.55;;
18659;SDS011;9459;50.254;19.014;2023-08-20T03:35:33;18.42;;;16.30;;
18659;SDS011;9459;50.254;19.014;2023-08-20T03:38:02;19.70;;;16.67;;
18659;SDS011;9459;50.254;19.014;2023-08-20T03:40:30;18.05;;;16.15;;
18659;SDS011;9459;50.254;19.014;2023-08-20T03:42:59;18.42;;;16.38;;
18659;SDS011;9459;50.254;19.014;2023-08-20T03:45:27;16.50;;;14.70;;
18659;SDS011;9459;50.254;19.014;2023-08-20T03:47:58;17.02;;;15.10;;
18659;SDS011;9459;50.254;19.014;2023-08-20T03:50:27;17.58;;;15.02;;
18659;SDS011;9459;50.254;19.014;2023-08-20T03:52:55;16.55;;;14.60;;
18659;SDS011;9459;50.254;19.014;2023-08-20T03:55:24;15.25;;;13.65;;
18659;SDS011;9459;50.254;19.014;2023-08-20T03:57:53;17.10;;;14.82;;
18659;SDS011;9459;50.254;19.014;2023-08-20T04:00:21;14.57;;;12.95;;
18659;SDS011;9459;50.254;19.014;2023-08-20T04:02:49;12.75;;;11.45;;
18659;SDS011;9459;50.254;19.014;2023-08-20T04:05:20;13.35;;;12.05;;
18659;SDS011;9459;50.254;19.014;2023-08-20T04:07:48;16.02;;;14.32;;
18659;SDS011;9459;50.254;19.014;2023-08-20T04:10:17;15.40;;;13.80;;
18659;SDS011;9459;50.254;19.014;2023-08-20T04:12:45;15.32;;;13.70;;
18659;SDS011;9459;50.254;19.014;2023-08-20T04:15:14;20.80;;;16.77;;
18659;SDS011;9459;50.254;19.014;2023-08-20T04:17:42;16.27;;;14.63;;
18659;SDS011;9459;50.254;19.014;2023-08-20T04:20:11;17.13;;;14.75;;
18659;SDS011;9459;50.254;19.014;2023-08-20T04:22:41;16.55;;;14.70;;
18659;SDS011;9459;50.254;19.014;2023-08-20T04:25:10;16.07;;;14.37;;
18659;SDS011;9459;50.254;19.014;2023-08-20T04:27:39;14.63;;;13.02;;
18659;SDS011;9459;50.254;19.014;2023-08-20T04:30:08;14.05;;;11.95;;
18659;SDS011;9459;50.254;19.014;2023-08-20T04:32:37;14.20;;;11.60;;
18659;SDS011;9459;50.254;19.014;2023-08-20T04:35:06;12.60;;;11.40;;
18659;SDS011;9459;50.254;19.014;2023-08-20T04:37:35;12.63;;;11.43;;
18659;SDS011;9459;50.254;19.014;2023-08-20T04:40:06;11.50;;;10.40;;
18659;SDS011;9459;50.254;19.014;2023-08-20T04:42:35;12.20;;;11.00;;
18659;SDS011;9459;50.254;19.014;2023-08-20T04:45:05;13.95;;;12.45;;
18659;SDS011;9459;50.254;19.014;2023-08-20T04:47:34;13.30;;;11.82;;
18659;SDS011;9459;50.254;19.014;2023-08-20T04:50:04;14.52;;;12.98;;
18659;SDS011;9459;50.254;19.014;2023-08-20T04:52:34;13.27;;;11.98;;
18659;SDS011;9459;50.254;19.014;2023-08-20T04:55:03;12.55;;;11.25;;
18659;SDS011;9459;50.254;19.014;2023-08-20T04:57:34;12.25;;;11.07;;
18659;SDS011;9459;50.254;19.014;2023-08-20T05:02:33;16.25;;;14.55;;
18659;SDS011;9459;50.254;19.014;2023-08-20T05:05:02;17.75;;;14.88;;
18659;SDS011;9459;50.254;19.014;2023-08-20T05:07:31;15.48;;;13.93;;
18659;SDS011;9459;50.254;19.014;2023-08-20T05:10:00;14.95;;;13.35;;
18659;SDS011;9459;50.254;19.014;2023-08-20T05:12:29;14.02;;;12.63;;
18659;SDS011;9459;50.254;19.014;2023-08-20T05:14:59;14.63;;;13.10;;
18659;SDS011;9459;50.254;19.014;2023-08-20T05:17:27;17.38;;;15.45;;
18659;SDS011;9459;50.254;19.014;2023-08-20T05:19:56;13.43;;;12.13;;
18659;SDS011;9459;50.254;19.014;2023-08-20T05:22:24;14.20;;;12.80;;
18659;SDS011;9459;50.254;19.014;2023-08-20T05:24:53;12.05;;;10.95;;
18659;SDS011;9459;50.254;19.014;2023-08-20T05:27:21;12.23;;;10.90;;
18659;SDS011;9459;50.254;19.014;2023-08-20T05:29:50;12.18;;;10.98;;
18659;SDS011;9459;50.254;19.014;2023-08-20T05:32:20;14.07;;;11.50;;
18659;SDS011;9459;50.254;19.014;2023-08-20T05:34:48;10.93;;;9.82;;
18659;SDS011;9459;50.254;19.014;2023-08-20T05:37:16;11.63;;;10.43;;
18659;SDS011;9459;50.254;19.014;2023-08-20T05:39:45;11.10;;;9.90;;
18659;SDS011;9459;50.254;19.014;2023-08-20T05:42:13;11.10;;;9.98;;
18659;SDS011;9459;50.254;19.014;2023-08-20T05:44:42;10.68;;;9.45;;
18659;SDS011;9459;50.254;19.014;2023-08-20T05:47:10;9.18;;;8.27;;
18659;SDS011;9459;50.254;19.014;2023-08-20T05:49:40;9.93;;;9.02;;
18659;SDS011;9459;50.254;19.014;2023-08-20T05:52:09;11.87;;;9.93;;
18659;SDS011;9459;50.254;19.014;2023-08-20T05:54:37;10.73;;;9.63;;
18659;SDS011;9459;50.254;19.014;2023-08-20T05:57:05;9.73;;;8.70;;
18659;SDS011;9459;50.254;19.014;2023-08-20T05:59:34;8.70;;;7.95;;
18659;SDS011;9459;50.254;19.014;2023-08-20T06:02:03;10.13;;;9.13;;
18659;SDS011;9459;50.254;19.014;2023-08-20T06:04:32;11.02;;;9.10;;
18659;SDS011;9459;50.254;19.014;2023-08-20T06:07:02;9.63;;;8.73;;
18659;SDS011;9459;50.254;19.014;2023-08-20T06:09:31;9.55;;;8.55;;
18659;SDS011;9459;50.254;19.014;2023-08-20T06:11:59;8.70;;;7.90;;
18659;SDS011;9459;50.254;19.014;2023-08-20T06:14:28;9.82;;;8.82;;
18659;SDS011;9459;50.254;19.014;2023-08-20T06:16:57;10.68;;;8.68;;
18659;SDS011;9459;50.254;19.014;2023-08-20T06:19:25;10.23;;;9.23;;
18659;SDS011;9459;50.254;19.014;2023-08-20T06:21:53;8.35;;;7.55;;
18659;SDS011;9459;50.254;19.014;2023-08-20T06:24:23;8.35;;;7.45;;
18659;SDS011;9459;50.254;19.014;2023-08-20T06:26:52;9.52;;;7.60;;
18659;SDS011;9459;50.254;19.014;2023-08-20T06:29:20;8.80;;;7.97;;
18659;SDS011;9459;50.254;19.014;2023-08-20T06:31:49;9.27;;;8.30;;
18659;SDS011;9459;50.254;19.014;2023-08-20T06:34:18;8.90;;;8.02;;
18659;SDS011;9459;50.254;19.014;2023-08-20T06:36:47;9.48;;;7.90;;
18659;SDS011;9459;50.254;19.014;2023-08-20T06:39:15;8.20;;;7.18;;
18659;SDS011;9459;50.254;19.014;2023-08-20T06:41:46;8.48;;;7.65;;
18659;SDS011;9459;50.254;19.014;2023-08-20T06:44:15;9.10;;;8.02;;
18659;SDS011;9459;50.254;19.014;2023-08-20T06:46:43;8.00;;;7.25;;
18659;SDS011;9459;50.254;19.014;2023-08-20T06:49:12;8.15;;;7.18;;
18659;SDS011;9459;50.254;19.014;2023-08-20T06:51:40;7.72;;;6.93;;
18659;SDS011;9459;50.254;19.014;2023-08-20T06:54:09;8.98;;;6.93;;
18659;SDS011;9459;50.254;19.014;2023-08-20T06:56:37;7.65;;;6.85;;
18659;SDS011;9459;50.254;19.014;2023-08-20T06:59:08;7.05;;;6.45;;
18659;SDS011;9459;50.254;19.014;2023-08-20T07:01:36;6.90;;;6.30;;
18659;SDS011;9459;50.254;19.014;2023-08-20T07:04:05;7.38;;;6.70;;
18659;SDS011;9459;50.254;19.014;2023-08-20T07:06:33;6.93;;;6.32;;
18659;SDS011;9459;50.254;19.014;2023-08-20T07:09:02;6.83;;;6.23;;
18659;SDS011;9459;50.254;19.014;2023-08-20T07:11:31;7.00;;;6.40;;
18659;SDS011;9459;50.254;19.014;2023-08-20T07:14:00;7.93;;;6.40;;
18659;SDS011;9459;50.254;19.014;2023-08-20T07:16:31;6.88;;;6.28;;
18659;SDS011;9459;50.254;19.014;2023-08-20T07:18:59;6.00;;;5.50;;
18659;SDS011;9459;50.254;19.014;2023-08-20T07:21:28;6.38;;;5.78;;
18659;SDS011;9459;50.254;19.014;2023-08-20T07:23:56;6.20;;;5.70;;
18659;SDS011;9459;50.254;19.014;2023-08-20T07:26:25;6.97;;;6.20;;
18659;SDS011;9459;50.254;19.014;2023-08-20T07:28:53;6.10;;;5.50;;
18659;SDS011;9459;50.254;19.014;2023-08-20T07:31:25;6.10;;;5.65;;
18659;SDS011;9459;50.254;19.014;2023-08-20T07:33:56;6.28;;;5.65;;
18659;SDS011;9459;50.254;19.014;2023-08-20T07:36:30;6.70;;;6.10;;
18659;SDS011;9459;50.254;19.014;2023-08-20T07:38:59;6.07;;;5.57;;
18659;SDS011;9459;50.254;19.014;2023-08-20T07:41:29;5.63;;;5.13;;
18659;SDS011;9459;50.254;19.014;2023-08-20T07:43:58;5.85;;;5.43;;
18659;SDS011;9459;50.254;19.014;2023-08-20T07:46:26;6.63;;;6.03;;
18659;SDS011;9459;50.254;19.014;2023-08-20T07:48:56;5.85;;;5.40;;
18659;SDS011;9459;50.254;19.014;2023-08-20T07:51:24;7.28;;;6.20;;
18659;SDS011;9459;50.254;19.014;2023-08-20T07:53:53;6.30;;;5.80;;
18659;SDS011;9459;50.254;19.014;2023-08-20T07:56:21;5.80;;;5.35;;
18659;SDS011;9459;50.254;19.014;2023-08-20T07:58:50;6.80;;;5.90;;
18659;SDS011;9459;50.254;19.014;2023-08-20T08:01:18;6.73;;;6.13;;
18659;SDS011;9459;50.254;19.014;2023-08-20T08:03:47;6.03;;;5.53;;
18659;SDS011;9459;50.254;19.014;2023-08-20T08:06:17;5.53;;;5.03;;
18659;SDS011;9459;50.254;19.014;2023-08-20T08:08:46;5.68;;;5.25;;
18659;SDS011;9459;50.254;19.014;2023-08-20T08:11:15;5.55;;;5.15;;
18659;SDS011;9459;50.254;19.014;2023-08-20T08:13:43;5.88;;;5.38;;
18659;SDS011;9459;50.254;19.014;2023-08-20T08:16:12;5.97;;;5.45;;
18659;SDS011;9459;50.254;19.014;2023-08-20T08:21:09;6.30;;;5.70;;
18659;SDS011;9459;50.254;19.014;2023-08-20T08:23:39;5.80;;;5.30;;
18659;SDS011;9459;50.254;19.014;2023-08-20T08:26:07;5.95;;;5.43;;
18659;SDS011;9459;50.254;19.014;2023-08-20T08:31:04;5.70;;;5.30;;
18659;SDS011;9459;50.254;19.014;2023-08-20T08:33:34;6.43;;;5.22;;
18659;SDS011;9459;50.254;19.014;2023-08-20T08:36:02;6.10;;;5.60;;
18659;SDS011;9459;50.254;19.014;2023-08-20T08:38:31;6.45;;;5.85;;
18659;SDS011;9459;50.254;19.014;2023-08-20T08:43:32;6.75;;;6.22;;
18659;SDS011;9459;50.254;19.014;2023-08-20T08:46:00;6.20;;;5.70;;
18659;SDS011;9459;50.254;19.014;2023-08-20T08:48:30;6.45;;;5.93;;
18659;SDS011;9459;50.254;19.014;2023-08-20T08:50:58;6.13;;;5.63;;
18659;SDS011;9459;50.254;19.014;2023-08-20T08:53:27;5.75;;;5.30;;
18659;SDS011;9459;50.254;19.014;2023-08-20T08:55:56;6.32;;;5.82;;
18659;SDS011;9459;50.254;19.014;2023-08-20T09:00:54;6.03;;;5.60;;
18659;SDS011;9459;50.254;19.014;2023-08-20T09:03:23;6.00;;;5.50;;
18659;SDS011;9459;50.254;19.014;2023-08-20T09:05:54;6.10;;;5.70;;
18659;SDS011;9459;50.254;19.014;2023-08-20T09:08:26;7.00;;;6.38;;
18659;SDS011;9459;50.254;19.014;2023-08-20T09:10:56;6.07;;;5.47;;
18659;SDS011;9459;50.254;19.014;2023-08-20T09:13:33;5.78;;;5.28;;
18659;SDS011;9459;50.254;19.014;2023-08-20T09:16:03;5.70;;;5.18;;
18659;SDS011;9459;50.254;19.014;2023-08-20T09:18:33;5.82;;;5.32;;
18659;SDS011;9459;50.254;19.014;2023-08-20T09:21:05;6.00;;;5.20;;
18659;SDS011;9459;50.254;19.014;2023-08-20T09:23:36;5.70;;;5.20;;
18659;SDS011;9459;50.254;19.014;2023-08-20T09:26:05;5.85;;;5.35;;
18659;SDS011;9459;50.254;19.014;2023-08-20T09:28:42;5.97;;;5.57;;
18659;SDS011;9459;50.254;19.014;2023-08-20T09:31:11;5.95;;;5.45;;
18659;SDS011;9459;50.254;19.014;2023-08-20T09:33:48;5.95;;;5.45;;
18659;SDS011;9459;50.254;19.014;2023-08-20T09:36:17;6.10;;;5.50;;
18659;SDS011;9459;50.254;19.014;2023-08-20T09:38:46;7.40;;;6.25;;
18659;SDS011;9459;50.254;19.014;2023-08-20T09:41:16;6.82;;;6.20;;
18659;SDS011;9459;50.254;19.014;2023-08-20T09:46:15;6.25;;;5.65;;
18659;SDS011;9459;50.254;19.014;2023-08-20T09:48:44;6.65;;;6.05;;
18659;SDS011;9459;50.254;19.014;2023-08-20T09:51:14;6.40;;;5.88;;
18659;SDS011;9459;50.254;19.014;2023-08-20T09:53:48;6.20;;;5.70;;
18659;SDS011;9459;50.254;19.014;2023-08-20T09:56:23;6.03;;;5.53;;
18659;SDS011;9459;50.254;19.014;2023-08-20T09:58:55;6.65;;;6.05;;
18659;SDS011;9459;50.254;19.014;2023-08-20T10:01:25;6.90;;;6.20;;
18659;SDS011;9459;50.254;19.014;2023-08-20T10:03:54;6.60;;;6.05;;
18659;SDS011;9459;50.254;19.014;2023-08-20T10:06:23;6.07;;;5.57;;
18659;SDS011;9459;50.254;19.014;2023-08-20T10:08:52;7.55;;;5.88;;
18659;SDS011;9459;50.254;19.014;2023-08-20T10:11:21;7.45;;;6.63;;
18659;SDS011;9459;50.254;19.014;2023-08-20T10:13:50;6.82;;;6.22;;
18659;SDS011;9459;50.254;19.014;2023-08-20T10:16:19;6.90;;;6.20;;
18659;SDS011;9459;50.254;19.014;2023-08-20T10:18:51;7.55;;;6.28;;
18659;SDS011;9459;50.254;19.014;2023-08-20T10:21:23;6.88;;;6.28;;
18659;SDS011;9459;50.254;19.014;2023-08-20T10:23:52;6.95;;;6.28;;
18659;SDS011;9459;50.254;19.014;2023-08-20T10:26:21;7.60;;;6.35;;
18659;SDS011;9459;50.254;19.014;2023-08-20T10:28:51;6.85;;;6.20;;
18659;SDS011;9459;50.254;19.014;2023-08-20T10:31:46;7.03;;;6.43;;
18659;SDS011;9459;50.254;19.014;2023-08-20T10:34:16;6.65;;;6.05;;
18659;SDS011;9459;50.254;19.014;2023-08-20T10:37:01;6.07;;;5.57;;
18659;SDS011;9459;50.254;19.014;2023-08-20T10:42:09;5.55;;;5.05;;
18659;SDS011;9459;50.254;19.014;2023-08-20T10:47:29;5.80;;;5.30;;
18659;SDS011;9459;50.254;19.014;2023-08-20T10:50:05;5.82;;;5.30;;
18659;SDS011;9459;50.254;19.014;2023-08-20T10:52:38;6.40;;;5.82;;
18659;SDS011;9459;50.254;19.014;2023-08-20T10:55:10;8.18;;;5.90;;
18659;SDS011;9459;50.254;19.014;2023-08-20T10:57:38;6.30;;;5.80;;
18659;SDS011;9459;50.254;19.014;2023-08-20T11:00:07;7.80;;;5.55;;
18659;SDS011;9459;50.254;19.014;2023-08-20T11:02:39;6.07;;;5.57;;
18659;SDS011;9459;50.254;19.014;2023-08-20T11:05:15;6.85;;;5.63;;
18659;SDS011;9459;50.254;19.014;2023-08-20T11:07:45;7.05;;;6.30;;
18659;SDS011;9459;50.254;19.014;2023-08-20T11:10:14;6.05;;;5.35;;
18659;SDS011;9459;50.254;19.014;2023-08-20T11:12:45;5.55;;;5.00;;
18659;SDS011;9459;50.254;19.014;2023-08-20T11:15:14;5.30;;;4.80;;
18659;SDS011;9459;50.254;19.014;2023-08-20T11:17:44;6.57;;;5.97;;
18659;SDS011;9459;50.254;19.014;2023-08-20T11:20:17;5.72;;;5.10;;
18659;SDS011;9459;50.254;19.014;2023-08-20T11:22:46;6.07;;;5.55;;
18659;SDS011;9459;50.254;19.014;2023-08-20T11:25:15;6.97;;;5.50;;
18659;SDS011;9459;50.254;19.014;2023-08-20T11:27:43;6.22;;;5.60;;
18659;SDS011;9459;50.254;19.014;2023-08-20T11:30:12;5.82;;;5.25;;
18659;SDS011;9459;50.254;19.014;2023-08-20T11:32:40;6.03;;;4.88;;
18659;SDS011;9459;50.254;19.014;2023-08-20T11:35:11;5.38;;;4.88;;
18659;SDS011;9459;50.254;19.014;2023-08-20T11:37:40;5.65;;;5.15;;
18659;SDS011;9459;50.254;19.014;2023-08-20T11:40:09;6.70;;;6.03;;
18659;SDS011;9459;50.254;19.014;2023-08-20T11:42:38;7.10;;;6.40;;
18659;SDS011;9459;50.254;19.014;2023-08-20T11:45:09;6.57;;;5.97;;
18659;SDS011;9459;50.254;19.014;2023-08-20T11:47:38;6.85;;;5.88;;
18659;SDS011;9459;50.254;19.014;2023-08-20T11:50:07;6.32;;;5.70;;
18659;SDS011;9459;50.254;19.014;2023-08-20T11:52:38;5.85;;;5.35;;
18659;SDS011;9459;50.254;19.014;2023-08-20T11:55:07;7.20;;;5.88;;
18659;SDS011;9459;50.254;19.014;2023-08-20T11:57:37;6.07;;;5.53;;
18659;SDS011;9459;50.254;19.014;2023-08-20T12:00:06;6.20;;;5.65;;
18659;SDS011;9459;50.254;19.014;2023-08-20T12:02:38;6.07;;;5.57;;
18659;SDS011;9459;50.254;19.014;2023-08-20T12:05:08;6.07;;;5.47;;
18659;SDS011;9459;50.254;19.014;2023-08-20T12:07:38;8.02;;;6.03;;
18659;SDS011;9459;50.254;19.014;2023-08-20T12:12:50;6.82;;;6.20;;
18659;SDS011;9459;50.254;19.014;2023-08-20T12:15:19;6.60;;;5.93;;
18659;SDS011;9459;50.254;19.014;2023-08-20T12:17:55;7.45;;;6.75;;
18659;SDS011;9459;50.254;19.014;2023-08-20T12:20:26;6.13;;;5.60;;
18659;SDS011;9459;50.254;19.014;2023-08-20T12:22:58;7.10;;;6.40;;
18659;SDS011;9459;50.254;19.014;2023-08-20T12:25:29;7.20;;;6.50;;
18659;SDS011;9459;50.254;19.014;2023-08-20T12:27:58;7.90;;;7.20;;
18659;SDS011;9459;50.254;19.014;2023-08-20T12:30:27;9.82;;;6.80;;
18659;SDS011;9459;50.254;19.014;2023-08-20T12:32:55;6.82;;;6.00;;
18659;SDS011;9459;50.254;19.014;2023-08-20T12:35:24;6.68;;;6.07;;
18659;SDS011;9459;50.254;19.014;2023-08-20T12:37:52;6.78;;;6.18;;
18659;SDS011;9459;50.254;19.014;2023-08-20T12:40:23;9.68;;;6.90;;
18659;SDS011;9459;50.254;19.014;2023-08-20T12:42:51;7.43;;;6.77;;
18659;SDS011;9459;50.254;19.014;2023-08-20T12:45:20;7.07;;;6.38;;
18659;SDS011;9459;50.254;19.014;2023-08-20T12:47:48;7.45;;;6.78;;
18659;SDS011;9459;50.254;19.014;2023-08-20T12:50:17;8.00;;;7.20;;
18659;SDS011;9459;50.254;19.014;2023-08-20T12:52:45;6.95;;;6.35;;
18659;SDS011;9459;50.254;19.014;2023-08-20T12:55:16;7.15;;;6.25;;
18659;SDS011;9459;50.254;19.014;2023-08-20T12:57:53;7.38;;;6.68;;
18659;SDS011;9459;50.254;19.014;2023-08-20T13:00:23;7.35;;;6.65;;
18659;SDS011;9459;50.254;19.014;2023-08-20T13:02:53;7.47;;;6.87;;
18659;SDS011;9459;50.254;19.014;2023-08-20T13:05:22;11.03;;;7.67;;
18659;SDS011;9459;50.254;19.014;2023-08-20T13:07:52;7.82;;;7.13;;
18659;SDS011;9459;50.254;19.014;2023-08-20T13:10:21;7.65;;;6.85;;
18659;SDS011;9459;50.254;19.014;2023-08-20T13:12:51;7.97;;;7.28;;
18659;SDS011;9459;50.254;19.014;2023-08-20T13:15:22;7.78;;;6.72;;
18659;SDS011;9459;50.254;19.014;2023-08-20T13:17:52;7.47;;;6.80;;
18659;SDS011;9459;50.254;19.014;2023-08-20T13:20:22;8.77;;;6.75;;
18659;SDS011;9459;50.254;19.014;2023-08-20T13:22:51;7.13;;;6.43;;
18659;SDS011;9459;50.254;19.014;2023-08-20T13:25:20;7.22;;;6.63;;
18659;SDS011;9459;50.254;19.014;2023-08-20T13:27:49;7.18;;;6.47;;
18659;SDS011;9459;50.254;19.014;2023-08-20T13:30:19;7.65;;;6.95;;
18659;SDS011;9459;50.254;19.014;2023-08-20T13:32:48;7.50;;;6.70;;
18659;SDS011;9459;50.254;19.014;2023-08-20T13:35:17;7.43;;;6.60;;
18659;SDS011;9459;50.254;19.014;2023-08-20T13:37:46;7.22;;;6.53;;
18659;SDS011;9459;50.254;19.014;2023-08-20T13:40:14;6.65;;;6.05;;
18659;SDS011;9459;50.254;19.014;2023-08-20T13:42:42;7.30;;;6.65;;
18659;SDS011;9459;50.254;19.014;2023-08-20T13:45:11;7.15;;;6.55;;
18659;SDS011;9459;50.254;19.014;2023-08-20T13:47:41;7.68;;;6.35;;
18659;SDS011;9459;50.254;19.014;2023-08-20T13:50:14;7.40;;;6.70;;
18659;SDS011;9459;50.254;19.014;2023-08-20T13:52:43;7.35;;;6.65;;
18659;SDS011;9459;50.254;19.014;2023-08-20T13:55:11;7.22;;;6.53;;
18659;SDS011;9459;50.254;19.014;2023-08-20T13:57:40;7.57;;;6.88;;
18659;SDS011;9459;50.254;19.014;2023-08-20T14:00:09;6.55;;;5.95;;
18659;SDS011;9459;50.254;19.014;2023-08-20T14:02:40;8.10;;;7.30;;
18659;SDS011;9459;50.254;19.014;2023-08-20T14:07:38;7.20;;;6.50;;
18659;SDS011;9459;50.254;19.014;2023-08-20T14:10:07;6.88;;;6.28;;
18659;SDS011;9459;50.254;19.014;2023-08-20T14:12:36;7.60;;;6.90;;
18659;SDS011;9459;50.254;19.014;2023-08-20T14:15:08;8.10;;;6.40;;
18659;SDS011;9459;50.254;19.014;2023-08-20T14:17:37;7.95;;;6.45;;
18659;SDS011;9459;50.254;19.014;2023-08-20T14:20:07;7.93;;;6.78;;
18659;SDS011;9459;50.254;19.014;2023-08-20T14:22:38;7.00;;;6.40;;
18659;SDS011;9459;50.254;19.014;2023-08-20T14:25:07;8.77;;;6.72;;
18659;SDS011;9459;50.254;19.014;2023-08-20T14:27:36;6.97;;;6.38;;
18659;SDS011;9459;50.254;19.014;2023-08-20T14:30:06;7.95;;;7.10;;
18659;SDS011;9459;50.254;19.014;2023-08-20T14:32:37;7.43;;;6.70;;
18659;SDS011;9459;50.254;19.014;2023-08-20T14:35:09;6.30;;;5.70;;
18659;SDS011;9459;50.254;19.014;2023-08-20T14:37:37;8.70;;;7.43;;
18659;SDS011;9459;50.254;19.014;2023-08-20T14:40:06;7.50;;;6.80;;
18659;SDS011;9459;50.254;19.014;2023-08-20T14:42:36;7.47;;;6.63;;
18659;SDS011;9459;50.254;19.014;2023-08-20T14:45:06;6.97;;;6.38;;
18659;SDS011;9459;50.254;19.014;2023-08-20T14:47:34;6.88;;;6.28;;
18659;SDS011;9459;50.254;19.014;2023-08-20T14:50:03;7.20;;;6.45;;
18659;SDS011;9459;50.254;19.014;2023-08-20T14:52:35;6.55;;;5.85;;
18659;SDS011;9459;50.254;19.014;2023-08-20T14:57:35;5.95;;;5.45;;
18659;SDS011;9459;50.254;19.014;2023-08-20T15:00:19;7.45;;;6.65;;
18659;SDS011;9459;50.254;19.014;2023-08-20T15:02:49;5.88;;;5.38;;
18659;SDS011;9459;50.254;19.014;2023-08-20T15:05:18;6.88;;;6.28;;
18659;SDS011;9459;50.254;19.014;2023-08-20T15:07:50;7.55;;;5.88;;
18659;SDS011;9459;50.254;19.014;2023-08-20T15:10:18;7.83;;;5.73;;
18659;SDS011;9459;50.254;19.014;2023-08-20T15:12:47;6.18;;;5.68;;
18659;SDS011;9459;50.254;19.014;2023-08-20T15:15:15;8.10;;;5.80;;
18659;SDS011;9459;50.254;19.014;2023-08-20T15:17:44;6.80;;;6.20;;
18659;SDS011;9459;50.254;19.014;2023-08-20T15:20:12;6.05;;;5.55;;
18659;SDS011;9459;50.254;19.014;2023-08-20T15:22:41;6.00;;;5.40;;
18659;SDS011;9459;50.254;19.014;2023-08-20T15:25:11;6.75;;;5.47;;
18659;SDS011;9459;50.254;19.014;2023-08-20T15:27:40;7.97;;;6.13;;